sensor_id;sensor_type;location;lat;lon;timestamp;pressure;altitude;pressure_sealevel;temperature;humidity
38191;BME280;25191;47.510;19.124;2023-01-26T00:08:27;101079.09;;;20.71;nan
38191;BME280;25191;47.510;19.124;2023-01-26T00:18:28;101067.81;;;20.69;nan
38191;BME280;25191;47.510;19.124;2023-01-26T00:28:29;101063.41;;;20.69;nan
38191;BME280;25191;47.510;19.124;2023-01-26T00:38:29;101065.38;;;20.66;nan
38191;BME280;25191;47.510;19.124;2023-01-26T00:48:30;101057.50;;;20.66;nan
38191;BME280;25191;47.510;19.124;2023-01-26T00:58:30;101042.63;;;20.64;nan
38191;BME280;25191;47.510;19.124;2023-01-26T01:08:30;101045.44;;;20.61;nan
38191;BME280;25191;47.510;19.124;2023-01-26T01:18:31;101048.09;;;20.61;nan
38191;BME280;25191;47.510;19.124;2023-01-26T01:28:33;101035.97;;;20.59;nan
38191;BME280;25191;47.510;19.124;2023-01-26T01:38:33;101025.56;;;20.57;nan
38191;BME280;25191;47.510;19.124;2023-01-26T01:48:42;101020.41;;;20.56;nan
38191;BME280;25191;47.510;19.124;2023-01-26T01:58:45;101013.44;;;20.55;nan
38191;BME280;25191;47.510;19.124;2023-01-26T02:08:51;100996.81;;;20.54;nan
38191;BME280;25191;47.510;19.124;2023-01-26T02:18:52;100983.00;;;20.51;nan
38191;BME280;25191;47.510;19.124;2023-01-26T02:28:53;100979.44;;;20.52;nan
38191;BME280;25191;47.510;19.124;2023-01-26T02:49:13;100947.31;;;20.46;nan
38191;BME280;25191;47.510;19.124;2023-01-26T02:59:32;100940.47;;;20.44;nan
38191;BME280;25191;47.510;19.124;2023-01-26T03:09:33;100920.38;;;20.43;nan
38191;BME280;25191;47.510;19.124;2023-01-26T03:19:33;100918.69;;;20.42;nan
38191;BME280;25191;47.510;19.124;2023-01-26T03:29:53;100904.69;;;20.41;nan
38191;BME280;25191;47.510;19.124;2023-01-26T03:39:54;100890.69;;;20.41;nan
38191;BME280;25191;47.510;19.124;2023-01-26T03:50:13;100889.03;;;20.40;nan
38191;BME280;25191;47.510;19.124;2023-01-26T04:00:31;100872.38;;;20.39;nan
38191;BME280;25191;47.510;19.124;2023-01-26T04:10:32;100874.19;;;20.39;nan
38191;BME280;25191;47.510;19.124;2023-01-26T04:20:33;100858.41;;;20.39;nan
38191;BME280;25191;47.510;19.124;2023-01-26T04:30:53;100853.16;;;20.39;nan
38191;BME280;25191;47.510;19.124;2023-01-26T04:40:53;100849.78;;;20.37;nan
38191;BME280;25191;47.510;19.124;2023-01-26T04:50:56;100849.66;;;20.38;nan
38191;BME280;25191;47.510;19.124;2023-01-26T05:00:57;100843.56;;;20.38;nan
38191;BME280;25191;47.510;19.124;2023-01-26T05:10:57;100847.13;;;20.37;nan
38191;BME280;25191;47.510;19.124;2023-01-26T05:20:57;100845.03;;;20.42;nan
38191;BME280;25191;47.510;19.124;2023-01-26T05:30:58;100836.53;;;20.51;nan
38191;BME280;25191;47.510;19.124;2023-01-26T05:40:58;100843.91;;;20.59;nan
38191;BME280;25191;47.510;19.124;2023-01-26T05:50:59;100849.59;;;20.66;nan
38191;BME280;25191;47.510;19.124;2023-01-26T06:01:03;100857.88;;;19.93;nan
38191;BME280;25191;47.510;19.124;2023-01-26T06:11:03;100847.47;;;20.05;nan
38191;BME280;25191;47.510;19.124;2023-01-26T06:21:05;100843.34;;;20.28;nan
38191;BME280;25191;47.510;19.124;2023-01-26T06:31:07;100853.09;;;20.26;nan
38191;BME280;25191;47.510;19.124;2023-01-26T06:41:08;100834.59;;;20.27;nan
38191;BME280;25191;47.510;19.124;2023-01-26T07:01:20;100825.06;;;20.52;nan
38191;BME280;25191;47.510;19.124;2023-01-26T07:11:21;100825.72;;;20.56;nan
38191;BME280;25191;47.510;19.124;2023-01-26T07:21:23;100823.28;;;20.66;nan
38191;BME280;25191;47.510;19.124;2023-01-26T07:31:23;100814.69;;;20.76;nan
38191;BME280;25191;47.510;19.124;2023-01-26T07:41:26;100803.75;;;20.83;nan
38191;BME280;25191;47.510;19.124;2023-01-26T07:51:27;100808.47;;;20.90;nan
38191;BME280;25191;47.510;19.124;2023-01-26T08:01:29;100805.63;;;20.81;nan
38191;BME280;25191;47.510;19.124;2023-01-26T08:11:29;100809.31;;;20.91;nan
38191;BME280;25191;47.510;19.124;2023-01-26T08:21:30;100807.09;;;20.98;nan
38191;BME280;25191;47.510;19.124;2023-01-26T08:31:30;100799.72;;;21.03;nan
38191;BME280;25191;47.510;19.124;2023-01-26T08:41:32;100807.28;;;21.07;nan
38191;BME280;25191;47.510;19.124;2023-01-26T08:51:33;100800.84;;;21.11;nan
38191;BME280;25191;47.510;19.124;2023-01-26T09:01:33;100809.38;;;21.15;nan
38191;BME280;25191;47.510;19.124;2023-01-26T09:11:34;100803.91;;;21.18;nan
38191;BME280;25191;47.510;19.124;2023-01-26T09:21:34;100806.53;;;21.18;nan
38191;BME280;25191;47.510;19.124;2023-01-26T09:31:35;100802.09;;;21.19;nan
38191;BME280;25191;47.510;19.124;2023-01-26T09:52:03;100788.94;;;21.19;nan
38191;BME280;25191;47.510;19.124;2023-01-26T10:12:34;100759.13;;;21.18;nan
38191;BME280;25191;47.510;19.124;2023-01-26T10:22:45;100749.44;;;21.19;nan
38191;BME280;25191;47.510;19.124;2023-01-26T10:32:50;100729.31;;;21.18;nan
38191;BME280;25191;47.510;19.124;2023-01-26T10:42:56;100724.91;;;21.18;nan
38191;BME280;25191;47.510;19.124;2023-01-26T10:53:02;100723.22;;;21.17;nan
38191;BME280;25191;47.510;19.124;2023-01-26T11:44:24;100661.91;;;21.15;nan
38191;BME280;25191;47.510;19.124;2023-01-26T11:54:54;100638.94;;;21.17;nan
38191;BME280;25191;47.510;19.124;2023-01-26T12:05:00;100618.00;;;21.16;nan
38191;BME280;25191;47.510;19.124;2023-01-26T12:46:10;100582.91;;;21.15;nan
38191;BME280;25191;47.510;19.124;2023-01-26T12:56:36;100572.63;;;21.12;nan
38191;BME280;25191;47.510;19.124;2023-01-26T13:06:39;100569.03;;;21.13;nan
38191;BME280;25191;47.510;19.124;2023-01-26T13:16:40;100565.53;;;21.13;nan
38191;BME280;25191;47.510;19.124;2023-01-26T13:26:43;100557.66;;;21.13;nan
38191;BME280;25191;47.510;19.124;2023-01-26T13:36:46;100568.91;;;21.15;nan
38191;BME280;25191;47.510;19.124;2023-01-26T13:47:01;100570.94;;;21.11;nan
38191;BME280;25191;47.510;19.124;2023-01-26T13:57:09;100561.97;;;21.14;nan
38191;BME280;25191;47.510;19.124;2023-01-26T14:07:14;100558.50;;;21.13;nan
38191;BME280;25191;47.510;19.124;2023-01-26T14:17:34;100556.69;;;21.14;nan
38191;BME280;25191;47.510;19.124;2023-01-26T14:27:40;100567.22;;;21.14;nan
38191;BME280;25191;47.510;19.124;2023-01-26T14:37:43;100563.41;;;21.18;nan
38191;BME280;25191;47.510;19.124;2023-01-26T14:47:44;100550.38;;;21.16;nan
38191;BME280;25191;47.510;19.124;2023-01-26T14:57:44;100545.97;;;21.17;nan
38191;BME280;25191;47.510;19.124;2023-01-26T15:18:15;100552.50;;;21.11;nan
38191;BME280;25191;47.510;19.124;2023-01-26T15:28:17;100551.06;;;21.07;nan
38191;BME280;25191;47.510;19.124;2023-01-26T15:38:18;100550.44;;;21.03;nan
38191;BME280;25191;47.510;19.124;2023-01-26T15:48:19;100546.25;;;21.01;nan
38191;BME280;25191;47.510;19.124;2023-01-26T15:58:24;100557.63;;;21.01;nan
38191;BME280;25191;47.510;19.124;2023-01-26T16:08:25;100550.44;;;21.03;nan
38191;BME280;25191;47.510;19.124;2023-01-26T16:18:25;100557.50;;;21.03;nan
38191;BME280;25191;47.510;19.124;2023-01-26T16:28:28;100548.78;;;21.02;nan
38191;BME280;25191;47.510;19.124;2023-01-26T16:38:31;100549.84;;;21.00;nan
38191;BME280;25191;47.510;19.124;2023-01-26T16:48:31;100545.03;;;20.93;nan
38191;BME280;25191;47.510;19.124;2023-01-26T16:58:34;100540.22;;;20.87;nan
38191;BME280;25191;47.510;19.124;2023-01-26T17:08:37;100537.69;;;20.86;nan
38191;BME280;25191;47.510;19.124;2023-01-26T17:18:38;100535.66;;;20.89;nan
38191;BME280;25191;47.510;19.124;2023-01-26T17:28:38;100538.19;;;20.91;nan
38191;BME280;25191;47.510;19.124;2023-01-26T17:38:39;100530.91;;;20.94;nan
38191;BME280;25191;47.510;19.124;2023-01-26T17:48:40;100524.91;;;20.92;nan
38191;BME280;25191;47.510;19.124;2023-01-26T17:58:42;100514.28;;;20.94;nan
38191;BME280;25191;47.510;19.124;2023-01-26T18:08:45;100528.38;;;20.93;nan
38191;BME280;25191;47.510;19.124;2023-01-26T18:18:55;100528.38;;;20.93;nan
38191;BME280;25191;47.510;19.124;2023-01-26T18:28:57;100521.22;;;20.95;nan
38191;BME280;25191;47.510;19.124;2023-01-26T18:39:01;100520.75;;;21.01;nan
38191;BME280;25191;47.510;19.124;2023-01-26T18:49:08;100529.53;;;21.13;nan
38191;BME280;25191;47.510;19.124;2023-01-26T18:59:09;100524.50;;;21.21;nan
38191;BME280;25191;47.510;19.124;2023-01-26T19:09:11;100522.00;;;21.20;nan
38191;BME280;25191;47.510;19.124;2023-01-26T19:19:12;100499.66;;;21.25;nan
38191;BME280;25191;47.510;19.124;2023-01-26T19:29:13;100498.19;;;21.21;nan
38191;BME280;25191;47.510;19.124;2023-01-26T19:39:15;100491.63;;;21.27;nan
38191;BME280;25191;47.510;19.124;2023-01-26T19:49:17;100485.38;;;21.17;nan
38191;BME280;25191;47.510;19.124;2023-01-26T19:59:19;100477.97;;;21.10;nan
38191;BME280;25191;47.510;19.124;2023-01-26T20:09:21;100482.63;;;21.07;nan
38191;BME280;25191;47.510;19.124;2023-01-26T20:19:22;100467.97;;;21.03;nan
38191;BME280;25191;47.510;19.124;2023-01-26T20:29:23;100465.34;;;21.03;nan
38191;BME280;25191;47.510;19.124;2023-01-26T20:39:29;100470.88;;;21.00;nan
38191;BME280;25191;47.510;19.124;2023-01-26T20:49:29;100464.03;;;20.97;nan
38191;BME280;25191;47.510;19.124;2023-01-26T20:59:30;100470.13;;;20.98;nan
38191;BME280;25191;47.510;19.124;2023-01-26T21:09:31;100465.09;;;20.94;nan
38191;BME280;25191;47.510;19.124;2023-01-26T21:19:32;100460.91;;;20.92;nan
38191;BME280;25191;47.510;19.124;2023-01-26T21:29:32;100449.66;;;20.90;nan
38191;BME280;25191;47.510;19.124;2023-01-26T21:39:33;100448.94;;;20.88;nan
38191;BME280;25191;47.510;19.124;2023-01-26T21:49:34;100436.09;;;20.83;nan
38191;BME280;25191;47.510;19.124;2023-01-26T21:59:35;100434.34;;;20.84;nan
38191;BME280;25191;47.510;19.124;2023-01-26T22:09:35;100417.94;;;20.80;nan
38191;BME280;25191;47.510;19.124;2023-01-26T22:19:38;100416.25;;;20.79;nan
38191;BME280;25191;47.510;19.124;2023-01-26T22:29:38;100408.44;;;20.77;nan
38191;BME280;25191;47.510;19.124;2023-01-26T22:39:39;100403.63;;;20.71;nan
38191;BME280;25191;47.510;19.124;2023-01-26T22:49:39;100390.47;;;20.71;nan
38191;BME280;25191;47.510;19.124;2023-01-26T22:59:40;100395.84;;;20.70;nan
38191;BME280;25191;47.510;19.124;2023-01-26T23:09:41;100383.75;;;20.67;nan
38191;BME280;25191;47.510;19.124;2023-01-26T23:19:41;100379.44;;;20.66;nan
38191;BME280;25191;47.510;19.124;2023-01-26T23:29:42;100372.63;;;20.63;nan
38191;BME280;25191;47.510;19.124;2023-01-26T23:39:42;100367.63;;;20.60;nan
38191;BME280;25191;47.510;19.124;2023-01-26T23:49:43;100362.44;;;20.59;nan
38191;BME280;25191;47.510;19.124;2023-01-26T23:59:43;100355.63;;;20.56;nan
